»·PEaware :: N6182G KSAN-KAVX

N6182G :: KSAN-KAVX

FLIGHT INFORMATION

Flight Status: Arrived
Operator: Privately registered:
United States
More flights under this callsign
Pilot: Dustin P. (9568)
Aircraft: CESSNA 182 SKYLANE
(C182)
More flights by this aircraft type
Origin: KSAN San Diego Intl-Lindbergh
United States
Destination: KAVX Catalina
United States
More flights between these airports :: More routes between these airports
Route: +VPSTP VPOCN PACIF
File this flight plan on PilotEdge
Remarks:
Altitude:
(Current/Filed)
4,500ft
Speed:
(Current/Filed)
120kts
Departed: 26-Nov-17 02:28 PM
Arrived: 26-Nov-17 03:17 PM
Distance/Time
Traveled:
74nm/0:49
Distance/Time
To Go:
Arrived

Flight Plot

Page will automatically refresh every two minutes.

Flight plan parsing failed; only flown route is shown


Map Options




Map Legend


Flown Route
Filed Route
Departure Airport
Arrival Airport
Navaid (VOR, NDB)
Fix

Horizontal Profiles

Position Reports

Time Latitude Longitude Heading Altitude Ground
Speed
26-Nov-17 14:15 32.734023 -117.179761 104 18ft 0kts
26-Nov-17 14:16 32.734023 -117.179758 104 18ft 0kts
26-Nov-17 14:17 32.734022 -117.179755 104 18ft 0kts
26-Nov-17 14:18 32.734021 -117.179752 104 18ft 0kts
26-Nov-17 14:19 32.734020 -117.179748 104 18ft 0kts
26-Nov-17 14:20 32.734020 -117.179745 104 18ft 0kts
26-Nov-17 14:21 32.734019 -117.179742 104 18ft 0kts
26-Nov-17 14:22 32.734018 -117.179738 104 18ft 0kts
26-Nov-17 14:23 32.734017 -117.179735 104 18ft 0kts
26-Nov-17 14:24 32.734017 -117.179731 104 18ft 0kts
26-Nov-17 14:25 32.734016 -117.179728 104 18ft 0kts
26-Nov-17 14:26 32.733806 -117.179462 179 18ft 7kts
26-Nov-17 14:27 32.732624 -117.177933 105 18ft 16kts
26-Nov-17 14:28 32.731112 -117.175271 194 18ft 0kts
26-Nov-17 14:29 32.731108 -117.175272 194 18ft 0kts
26-Nov-17 14:30 32.730951 -117.175314 193 18ft 0kts
26-Nov-17 14:31 32.730950 -117.175314 193 18ft 0kts
26-Nov-17 14:32 32.730259 -117.175393 233 18ft 15kts
26-Nov-17 14:33 32.734867 -117.193109 289 436ft 68kts
26-Nov-17 14:34 32.748382 -117.209270 324 917ft 73kts
26-Nov-17 14:35 32.768487 -117.219621 338 1301ft 82kts
26-Nov-17 14:36 32.791111 -117.227613 344 1755ft 92kts
26-Nov-17 14:37 32.816149 -117.232957 351 2678ft 91kts
26-Nov-17 14:38 32.842167 -117.231652 6 3367ft 96kts
26-Nov-17 14:39 32.867183 -117.239606 326 4162ft 101kts
26-Nov-17 14:40 32.892511 -117.253991 329 5117ft 104kts
26-Nov-17 14:41 32.928829 -117.272980 339 4485ft 145kts
26-Nov-17 14:42 32.961533 -117.289936 335 4320ft 117kts
26-Nov-17 14:43 32.989380 -117.303516 336 5000ft 97kts
26-Nov-17 14:44 33.015736 -117.315370 336 5504ft 105kts
26-Nov-17 14:45 33.042296 -117.328974 327 6023ft 103kts
26-Nov-17 14:46 33.068128 -117.344903 328 6463ft 111kts
26-Nov-17 14:47 33.099322 -117.364070 331 6476ft 137kts
26-Nov-17 14:48 33.134596 -117.384114 332 6494ft 145kts
26-Nov-17 14:49 33.170915 -117.405400 330 6485ft 147kts
26-Nov-17 14:50 33.207017 -117.427625 324 6488ft 145kts
26-Nov-17 14:51 33.237450 -117.456892 275 6478ft 139kts
26-Nov-17 14:52 33.241062 -117.502777 272 6466ft 140kts
26-Nov-17 14:53 33.245624 -117.548367 275 6530ft 138kts
26-Nov-17 14:54 33.252655 -117.594444 278 6453ft 142kts
26-Nov-17 14:55 33.260502 -117.640268 274 6438ft 142kts
26-Nov-17 14:56 33.269729 -117.685395 286 6473ft 140kts
26-Nov-17 14:57 33.277674 -117.730391 270 6477ft 140kts
26-Nov-17 14:58 33.280444 -117.776812 271 6466ft 140kts
26-Nov-17 14:59 33.283834 -117.823579 271 6419ft 141kts
26-Nov-17 15:00 33.287752 -117.870027 273 6424ft 139kts
26-Nov-17 15:01 33.291506 -117.914942 271 6427ft 138kts
26-Nov-17 15:02 33.292800 -117.961043 270 6413ft 139kts
26-Nov-17 15:03 33.294651 -118.007196 266 6434ft 136kts
26-Nov-17 15:04 33.289753 -118.052241 262 6443ft 136kts
26-Nov-17 15:05 33.290566 -118.098115 270 6432ft 138kts
26-Nov-17 15:06 33.294745 -118.143965 275 6432ft 139kts
26-Nov-17 15:07 33.304410 -118.188789 283 5445ft 146kts
26-Nov-17 15:08 33.300957 -118.235479 258 4491ft 140kts
26-Nov-17 15:09 33.293725 -118.280801 262 4434ft 136kts
26-Nov-17 15:10 33.289581 -118.324309 274 4544ft 130kts
26-Nov-17 15:11 33.297627 -118.367298 281 4507ft 137kts
26-Nov-17 15:12 33.302570 -118.412681 279 4484ft 133kts
26-Nov-17 15:13 33.309980 -118.456126 285 4546ft 131kts
26-Nov-17 15:14 33.332502 -118.490922 326 4422ft 142kts
26-Nov-17 15:15 33.367881 -118.507808 346 4476ft 137kts
26-Nov-17 15:16 33.405284 -118.515180 355 3194ft 130kts
26-Nov-17 15:17 33.441912 -118.508414 61 2805ft 135kts
26-Nov-17 15:18 33.426485 -118.470994 116 2603ft 122kts
26-Nov-17 15:19 33.414734 -118.437498 113 2596ft 95kts
26-Nov-17 15:20 33.422773 -118.410465 57 2391ft 89kts
26-Nov-17 15:21 33.415370 -118.397590 245 2205ft 80kts
26-Nov-17 15:22 33.404419 -118.416779 233 1605ft 37kts
26-Nov-17 15:23 33.402401 -118.419464 54 1605ft 2kts
26-Nov-17 15:24 33.403738 -118.417181 54 1605ft 17kts
26-Nov-17 15:25 33.406761 -118.412086 54 1605ft 22kts
26-Nov-17 15:26 33.401354 -118.421591 235 1757ft 79kts
26-Nov-17 15:27 33.395008 -118.443098 307 2203ft 91kts
26-Nov-17 15:28 33.412139 -118.431674 65 2599ft 110kts
26-Nov-17 15:29 33.425916 -118.402330 97 2335ft 86kts
26-Nov-17 15:30 33.411269 -118.405085 230 1805ft 69kts
26-Nov-17 15:31 33.403613 -118.418127 234 1605ft 20kts
26-Nov-17 15:32 33.402856 -118.418686 54 1605ft 12kts
26-Nov-17 15:33 33.403448 -118.415911 76 1605ft 8kts
26-Nov-17 15:34 33.403727 -118.415183 57 1605ft 0kts
26-Nov-17 15:35 33.403728 -118.415181 57 1605ft 0kts
26-Nov-17 15:36 33.403728 -118.415179 57 1605ft 0kts

Navigation Log

Ident Type
Flight plan parsing failed, navigation log unavailable